.
WxDataArchive / Data Records for 2008-02-27
2008-02-26 February 2008 2008-02-28

Data Records for Wednesday, 27 February 2008

Time	Temp	Chill	HIndex	Humid	Dewpt	 Wind 	HiWind	WindDir	Rain 	Barom 
-----	----	-----	------	-----	-----	------	------	-------	-----	----- 
00:00	21.6	21.6	21.6	83	17.3	2	6	338	0.00	29.842 
00:05	21.4	21.4	21.4	83	17.1	2	6	292	0.00	29.842 
00:10	21.3	21.3	21.3	83	17.0	2	7	292	0.00	29.839 
00:15	21.3	21.3	21.3	82	16.7	2	6	292	0.00	29.838 
00:20	21.1	21.1	21.1	81	16.2	2	10	338	0.00	29.837 
00:25	21.0	21.0	21.0	81	16.1	2	6	315	0.00	29.838 
00:30	21.0	21.0	21.0	80	15.8	1	4	315	0.00	29.841 
00:35	20.8	20.8	20.8	79	15.3	2	6	270	0.00	29.844 
00:40	20.6	20.6	20.6	78	14.8	1	5	338	0.00	29.845 
00:45	20.6	20.6	20.6	78	14.8	2	6	338	0.00	29.845 
00:50	20.5	20.5	20.5	77	14.5	1	3	338	0.00	29.846 
00:55	20.3	20.3	20.3	77	14.3	2	7	292	0.00	29.846 
01:00	20.2	20.2	20.2	77	14.2	1	3	0	0.00	29.846 
01:05	20.0	20.0	20.0	77	14.0	1	3	292	0.00	29.850 
01:10	19.9	19.9	19.9	77	13.9	1	3	292	0.00	29.850 
01:15	19.7	19.7	19.7	77	13.7	1	3	292	0.00	29.850 
01:20	19.7	19.7	19.7	77	13.7	1	4	270	0.00	29.850 
01:25	19.7	19.7	19.7	77	13.7	1	3	270	0.00	29.851 
01:30	19.5	19.5	19.5	77	13.5	0	3	292	0.00	29.851 
01:35	19.5	19.5	19.5	77	13.5	1	3	0	0.00	29.851 
01:40	19.4	19.4	19.4	76	13.1	1	4	338	0.00	29.852 
01:45	19.4	19.4	19.4	76	13.1	0	2	338	0.00	29.852 
01:50	19.2	19.2	19.2	76	12.9	1	6	270	0.00	29.853 
01:55	19.1	19.1	19.1	76	12.8	1	5	0	0.00	29.852 
02:00	18.8	18.8	18.8	76	12.5	0	4	338	0.00	29.852 
02:05	18.6	18.6	18.6	76	12.3	1	3	270	0.00	29.853 
02:10	18.4	18.4	18.4	76	12.1	0	2	270	0.00	29.854 
02:15	18.3	18.3	18.3	77	12.3	1	4	270	0.00	29.856 
02:20	18.0	18.0	18.0	77	12.0	0	2	270	0.00	29.855 
02:25	18.0	18.0	18.0	77	12.0	1	5	292	0.00	29.857 
02:30	17.7	17.7	17.7	77	11.7	0	1	292	0.00	29.858 
02:35	17.5	17.5	17.5	77	11.5	0	2	292	0.00	29.860 
02:40	17.5	17.5	17.5	77	11.5	0	5	270	0.00	29.859 
02:45	17.3	17.3	17.3	77	11.3	0	3	270	0.00	29.860 
02:50	17.3	17.3	17.3	77	11.3	1	5	270	0.00	29.859 
02:55	17.2	17.2	17.2	77	11.3	0	2	315	0.00	29.861 
03:00	17.0	17.0	17.0	77	11.1	0	2	315	0.00	29.863 
03:05	16.9	16.9	16.9	77	11.0	0	3	292	0.00	29.865 
03:10	16.7	16.7	16.7	77	10.8	0	2	0	0.00	29.870 
03:15	16.5	16.5	16.5	77	10.6	0	2	338	0.00	29.871 
03:20	16.2	16.2	16.2	77	10.3	1	3	0	0.00	29.871 
03:25	16.2	16.2	16.2	75	9.7	1	4	338	0.00	29.871 
03:30	16.1	16.1	16.1	73	9.0	1	3	315	0.00	29.872 
03:35	15.9	15.9	15.9	73	8.8	0	3	270	0.00	29.871 
03:40	15.6	15.6	15.6	72	8.2	0	2	270	0.00	29.871 
03:45	15.4	15.4	15.4	70	7.4	1	2	315	0.00	29.871 
03:50	15.2	15.2	15.2	69	6.9	1	5	0	0.00	29.873 
03:55	15.2	15.2	15.2	67	6.2	2	9	22	0.00	29.874 
04:00	15.1	15.1	15.1	66	5.8	1	3	0	0.00	29.874 
04:05	14.9	14.9	14.9	66	5.6	0	2	0	0.00	29.878 
04:10	14.8	14.8	14.8	66	5.5	0	2	22	0.00	29.877 
04:15	14.4	14.4	14.4	66	5.1	0	2	22	0.00	29.878 
04:20	14.3	14.3	14.3	67	5.4	0	3	270	0.00	29.877 
04:25	14.0	14.0	14.0	67	5.1	0	0	---	0.00	29.877 
04:30	13.6	13.6	13.6	67	4.7	0	1	292	0.00	29.877 
04:35	13.3	13.3	13.3	68	4.7	0	0	---	0.00	29.884 
04:40	12.8	12.8	12.8	68	4.3	0	0	---	0.00	29.888 
04:45	12.4	12.4	12.4	69	4.2	0	0	---	0.00	29.885 
04:50	12.1	12.1	12.1	70	4.2	0	0	---	0.00	29.885 
04:55	11.9	11.9	11.9	71	4.3	0	0	---	0.00	29.887 
05:00	11.6	11.6	11.6	71	4.0	0	0	---	0.00	29.885 
05:05	11.1	11.1	11.1	72	3.9	0	0	---	0.00	29.891 
05:10	10.7	10.7	10.7	72	3.5	0	0	---	0.00	29.892 
05:15	10.4	10.4	10.4	73	3.5	0	0	---	0.00	29.897 
05:20	10.2	10.2	10.2	74	3.6	0	1	292	0.00	29.897 
05:25	10.0	10.0	10.0	75	3.7	0	0	---	0.00	29.899 
05:30	10.0	10.0	10.0	76	4.0	0	0	---	0.00	29.902 
05:35	10.2	10.2	10.2	76	4.2	0	0	---	0.00	29.904 
05:40	10.4	10.4	10.4	76	4.4	0	1	292	0.00	29.909 
05:45	10.4	10.4	10.4	76	4.4	0	0	---	0.00	29.910 
05:50	10.5	10.5	10.5	76	4.5	0	0	---	0.00	29.910 
05:55	10.5	10.5	10.5	76	4.5	0	0	---	0.00	29.909 
06:00	10.5	10.5	10.5	76	4.5	0	0	---	0.00	29.911 
06:05	10.5	10.5	10.5	75	4.2	0	1	292	0.00	29.914 
06:10	10.5	10.5	10.5	75	4.2	0	0	---	0.00	29.918 
06:15	10.4	10.4	10.4	75	4.1	0	0	---	0.00	29.918 
06:20	10.0	10.0	10.0	75	3.7	0	1	292	0.00	29.918 
06:25	10.0	10.0	10.0	76	4.0	0	0	---	0.00	29.921 
06:30	9.9	9.9	9.9	76	3.9	0	0	---	0.00	29.922 
06:35	9.7	9.7	9.7	76	3.7	0	0	---	0.00	29.924 
06:40	9.3	9.3	9.3	76	3.3	0	0	---	0.00	29.925 
06:45	9.3	9.3	9.3	77	3.6	0	1	292	0.00	29.928 
06:50	9.3	9.3	9.3	77	3.6	0	1	292	0.00	29.930 
06:55	9.5	9.5	9.5	78	4.0	0	1	292	0.00	29.929 
07:00	9.7	9.7	9.7	78	4.2	0	1	292	0.00	29.932 
07:05	10.2	10.2	10.2	78	4.7	0	1	292	0.00	29.938 
07:10	10.5	10.5	10.5	78	5.0	1	2	270	0.00	29.943 
07:15	10.7	10.7	10.7	78	5.2	0	2	270	0.00	29.939 
07:20	10.9	10.9	10.9	77	5.1	0	0	---	0.00	29.933 
07:25	10.9	10.9	10.9	77	5.1	0	1	270	0.00	29.937 
07:30	11.1	11.1	11.1	77	5.3	0	0	---	0.00	29.933 
07:35	11.2	11.2	11.2	77	5.4	0	0	---	0.00	29.935 
07:40	11.4	11.4	11.4	77	5.6	0	1	270	0.00	29.939 
07:45	11.7	11.7	11.7	77	5.9	0	3	270	0.00	29.945 
07:50	11.9	11.9	11.9	76	5.8	0	1	248	0.00	29.945 
07:55	12.1	12.1	12.1	76	6.0	0	1	248	0.00	29.945 
08:00	12.3	12.3	12.3	75	5.9	0	1	248	0.00	29.948 
08:05	12.4	12.4	12.4	74	5.7	1	2	248	0.00	29.956 
08:10	12.6	12.6	12.6	74	5.9	0	2	248	0.00	29.952 
08:15	12.8	12.8	12.8	73	5.8	0	1	248	0.00	29.955 
08:20	12.9	12.9	12.9	73	5.9	0	2	248	0.00	29.958 
08:25	13.1	13.1	13.1	73	6.1	0	1	248	0.00	29.959 
08:30	13.5	13.5	13.5	73	6.5	0	2	248	0.00	29.958 
08:35	13.8	13.8	13.8	73	6.8	0	1	248	0.00	29.959 
08:40	14.0	14.0	14.0	73	7.0	0	1	248	0.00	29.960 
08:45	14.3	14.3	14.3	73	7.3	0	1	248	0.00	29.961 
08:50	14.6	14.6	14.6	72	7.2	0	2	248	0.00	29.959 
08:55	14.8	14.8	14.8	72	7.4	1	2	248	0.00	29.957 
09:00	15.1	15.1	15.1	71	7.4	1	2	248	0.00	29.958 
09:05	15.2	15.2	15.2	71	7.5	1	3	248	0.00	29.960 
09:10	15.6	15.6	15.6	71	7.9	0	2	248	0.00	29.963 
09:15	15.7	15.7	15.7	70	7.7	1	3	248	0.00	29.962 
09:20	15.9	15.9	15.9	70	7.9	1	3	248	0.00	29.964 
09:25	16.2	16.2	16.2	70	8.2	1	2	270	0.00	29.966 
09:30	16.4	16.4	16.4	69	8.0	1	2	270	0.00	29.971 
09:35	16.5	16.5	16.5	69	8.1	1	4	270	0.00	29.971 
09:40	16.5	16.5	16.5	69	8.1	1	5	270	0.00	29.973 
09:45	16.7	16.7	16.7	69	8.3	1	4	248	0.00	29.974 
09:50	16.7	16.7	16.7	69	8.3	1	3	248	0.00	29.973 
09:55	16.9	16.9	16.9	70	8.8	1	3	315	0.00	29.972 
10:00	17.0	17.0	17.0	70	8.9	0	2	315	0.00	29.973 
10:05	17.7	17.7	17.7	71	9.9	1	4	248	0.00	29.974 
10:10	18.0	18.0	18.0	71	10.2	1	3	248	0.00	29.973 
10:15	18.1	18.1	18.1	70	10.0	1	3	248	0.00	29.974 
10:20	18.4	18.4	18.4	70	10.3	1	4	248	0.00	29.974 
10:25	18.6	18.6	18.6	70	10.5	1	4	248	0.00	29.974 
10:30	18.6	18.6	18.6	70	10.5	2	6	248	0.00	29.972 
10:35	18.6	18.6	18.6	70	10.5	1	4	248	0.00	29.972 
10:40	18.6	18.6	18.6	70	10.5	1	5	248	0.00	29.973 
10:45	18.8	18.8	18.8	69	10.3	2	4	248	0.00	29.973 
10:50	18.9	18.9	18.9	69	10.4	2	5	248	0.00	29.974 
10:55	19.1	19.1	19.1	69	10.6	2	8	248	0.00	29.976 
11:00	19.2	19.2	19.2	70	11.0	2	5	248	0.00	29.979 
11:05	19.4	19.4	19.4	69	10.9	1	4	248	0.00	29.981 
11:10	19.7	19.7	19.7	69	11.2	1	3	270	0.00	29.980 
11:15	20.2	20.2	20.2	69	11.7	2	5	248	0.00	29.977 
11:20	20.2	20.2	20.2	68	11.4	3	7	248	0.00	29.976 
11:25	20.5	20.5	20.5	69	12.0	2	7	248	0.00	29.975 
11:30	20.3	20.3	20.3	68	11.5	2	9	248	0.00	29.978 
11:35	20.3	20.3	20.3	69	11.8	2	5	248	0.00	29.979 
11:40	20.5	20.5	20.5	70	12.3	2	4	270	0.00	29.984 
11:45	20.3	20.3	20.3	70	12.1	2	5	248	0.00	29.982 
11:50	20.5	20.5	20.5	71	12.6	2	4	248	0.00	29.980 
11:55	21.0	21.0	21.0	71	13.1	2	4	270	0.00	29.980 
12:00	21.0	21.0	21.0	71	13.1	2	5	270	0.00	29.979 
12:05	21.3	21.3	21.3	72	13.7	2	5	248	0.00	29.982 
12:10	21.3	21.3	21.3	71	13.4	2	3	270	0.00	29.978 
12:15	21.4	21.4	21.4	71	13.5	2	10	248	0.00	29.975 
12:20	21.6	21.6	21.6	72	14.0	2	5	248	0.00	29.972 
12:25	21.8	21.8	21.8	71	13.9	2	5	248	0.00	29.971 
12:30	22.1	22.1	22.1	72	14.5	1	5	270	0.00	29.971 
12:35	22.5	22.5	22.5	72	14.9	2	7	248	0.00	29.971 
12:40	22.5	22.5	22.5	71	14.5	2	6	248	0.00	29.969 
12:45	22.7	22.7	22.7	71	14.7	2	5	270	0.00	29.966 
12:50	22.5	22.5	22.5	71	14.5	3	12	270	0.00	29.966 
12:55	22.9	22.9	22.9	71	14.9	2	6	248	0.00	29.963 
13:00	23.0	23.0	23.0	71	15.0	2	5	248	0.00	29.961 
13:05	23.3	23.3	23.3	69	14.7	2	5	248	0.00	29.961 
13:10	23.2	23.2	23.2	68	14.2	2	5	270	0.00	29.957 
13:15	23.3	23.3	23.3	66	13.6	2	5	270	0.00	29.957 
13:20	23.6	23.6	23.6	66	13.9	2	5	270	0.00	29.956 
13:25	24.1	24.1	24.1	66	14.4	2	5	248	0.00	29.956 
13:30	24.1	24.1	24.1	65	14.1	1	3	292	0.00	29.955 
13:35	23.8	23.8	23.8	64	13.4	3	6	270	0.00	29.954 
13:40	23.6	23.6	23.6	66	13.9	2	5	270	0.01	29.953 
13:45	23.6	23.6	23.6	66	13.9	2	5	248	0.00	29.951 
13:50	23.5	23.5	23.5	65	13.5	3	6	270	0.00	29.952 
13:55	23.6	23.6	23.6	65	13.6	2	6	270	0.00	29.952 
14:00	23.8	23.8	23.8	65	13.8	2	5	248	0.00	29.946 
14:05	24.1	24.1	24.1	65	14.1	2	5	270	0.00	29.945 
14:10	24.1	24.1	24.1	66	14.4	2	9	270	0.00	29.946 
14:15	24.1	24.1	24.1	65	14.1	2	5	270	0.00	29.943 
14:20	24.1	24.1	24.1	65	14.1	2	6	270	0.00	29.943 
14:25	24.4	24.4	24.4	65	14.3	2	7	248	0.00	29.945 
14:30	24.5	24.5	24.5	64	14.1	2	7	248	0.00	29.943 
14:35	24.5	24.5	24.5	63	13.7	3	5	270	0.00	29.943 
14:40	24.7	24.7	24.7	64	14.3	2	6	248	0.00	29.944 
14:45	25.0	25.0	25.0	64	14.6	2	7	248	0.00	29.944 
14:50	24.8	24.8	24.8	64	14.4	2	5	270	0.00	29.945 
14:55	25.1	25.1	25.1	64	14.7	2	4	248	0.00	29.945 
15:00	25.3	25.3	25.3	63	14.5	2	5	270	0.00	29.946 
15:05	25.4	25.4	25.4	63	14.6	1	5	248	0.00	29.946 
15:10	25.6	25.6	25.6	64	15.1	1	3	270	0.01	29.948 
15:15	25.8	25.8	25.8	62	14.6	1	3	248	0.00	29.949 
15:20	25.7	25.7	25.7	60	13.8	2	4	248	0.00	29.953 
15:25	25.4	25.4	25.4	61	13.9	2	5	270	0.00	29.954 
15:30	25.0	25.0	25.0	62	13.8	3	5	270	0.00	29.955 
15:35	24.7	24.7	24.7	64	14.3	3	7	270	0.00	29.957 
15:40	24.5	24.5	24.5	66	14.8	3	5	270	0.00	29.957 
15:45	24.4	24.4	24.4	64	14.0	3	7	270	0.00	29.959 
15:50	24.5	24.5	24.5	63	13.7	2	7	270	0.00	29.957 
15:55	24.4	24.4	24.4	62	13.3	3	9	270	0.00	29.957 
16:00	24.4	24.4	24.4	62	13.3	3	9	270	0.00	29.960 
16:05	24.2	19.1	24.2	61	12.7	4	9	270	0.00	29.965 
16:10	24.1	19.0	24.1	62	13.0	4	10	270	0.00	29.967 
16:15	24.1	19.0	24.1	62	13.0	4	7	270	0.00	29.967 
16:20	23.9	23.9	23.9	62	12.8	3	7	270	0.00	29.968 
16:25	23.9	23.9	23.9	63	13.2	3	6	270	0.00	29.969 
16:30	24.1	24.1	24.1	64	13.7	3	7	270	0.00	29.971 
16:35	24.1	24.1	24.1	65	14.1	2	5	248	0.00	29.972 
16:40	23.9	23.9	23.9	65	13.9	3	7	270	0.00	29.975 
16:45	23.8	23.8	23.8	65	13.8	3	6	270	0.00	29.975 
16:50	23.8	23.8	23.8	66	14.1	3	6	270	0.00	29.976 
16:55	23.6	23.6	23.6	66	13.9	2	6	248	0.00	29.977 
17:00	23.6	23.6	23.6	67	14.3	3	7	270	0.00	29.977 
17:05	23.5	23.5	23.5	67	14.2	2	5	270	0.00	29.980 
17:10	23.3	23.3	23.3	68	14.3	3	7	270	0.00	29.982 
17:15	23.3	23.3	23.3	69	14.7	2	5	270	0.00	29.985 
17:20	23.2	23.2	23.2	70	14.9	2	4	270	0.00	29.986 
17:25	23.2	23.2	23.2	70	14.9	3	6	270	0.00	29.990 
17:30	23.0	23.0	23.0	70	14.7	2	5	270	0.00	29.989 
17:35	23.0	23.0	23.0	70	14.7	3	6	270	0.00	29.989 
17:40	23.0	23.0	23.0	70	14.7	3	11	270	0.00	29.992 
17:45	22.9	22.9	22.9	70	14.6	3	5	270	0.00	29.995 
17:50	22.9	22.9	22.9	70	14.6	3	5	270	0.00	29.995 
17:55	22.7	22.7	22.7	71	14.7	3	9	270	0.00	29.995 
18:00	22.7	22.7	22.7	71	14.7	3	6	270	0.00	29.996 
18:05	22.5	22.5	22.5	72	14.9	3	14	270	0.00	29.999 
18:10	22.4	17.0	22.4	72	14.8	4	14	270	0.00	30.000 
18:15	22.2	22.2	22.2	73	14.9	3	6	270	0.00	30.002 
18:20	21.9	21.9	21.9	73	14.6	3	9	270	0.00	30.004 
18:25	21.8	21.8	21.8	74	14.8	3	6	270	0.00	30.007 
18:30	21.8	21.8	21.8	73	14.5	2	6	270	0.00	30.009 
18:35	21.8	21.8	21.8	73	14.5	2	4	248	0.00	30.011 
18:40	21.8	21.8	21.8	73	14.5	3	9	270	0.00	30.012 
18:45	21.8	21.8	21.8	73	14.5	3	11	270	0.00	30.012 
18:50	21.6	21.6	21.6	73	14.3	2	5	270	0.00	30.013 
18:55	21.6	21.6	21.6	73	14.3	2	5	270	0.00	30.014 
19:00	21.6	21.6	21.6	73	14.3	2	4	270	0.00	30.016 
19:05	21.4	21.4	21.4	73	14.1	2	5	270	0.00	30.019 
19:10	21.4	21.4	21.4	73	14.1	2	6	270	0.00	30.023 
19:15	21.4	21.4	21.4	73	14.1	2	4	270	0.00	30.026 
19:20	21.3	21.3	21.3	73	14.0	2	5	270	0.00	30.028 
19:25	21.3	21.3	21.3	73	14.0	3	10	270	0.00	30.030 
19:30	21.1	21.1	21.1	74	14.1	2	7	270	0.00	30.031 
19:35	21.0	21.0	21.0	74	14.0	3	7	270	0.00	30.032 
19:40	20.8	20.8	20.8	75	14.1	2	6	270	0.00	30.032 
19:45	20.8	20.8	20.8	75	14.1	3	7	270	0.00	30.034 
19:50	20.6	20.6	20.6	75	14.0	2	11	270	0.00	30.038 
19:55	20.6	20.6	20.6	75	14.0	2	6	270	0.00	30.041 
20:00	20.6	20.6	20.6	75	14.0	2	6	270	0.00	30.042 
20:05	20.6	20.6	20.6	75	14.0	3	6	270	0.00	30.039 
20:10	20.6	20.6	20.6	75	14.0	3	5	270	0.00	30.040 
20:15	20.6	20.6	20.6	75	14.0	3	7	270	0.00	30.040 
20:20	20.5	20.5	20.5	75	13.9	2	7	292	0.00	30.040 
20:25	20.5	20.5	20.5	75	13.9	3	5	270	0.00	30.040 
20:30	20.5	20.5	20.5	75	13.9	2	5	270	0.00	30.040 
20:35	20.3	20.3	20.3	75	13.7	2	6	270	0.00	30.042 
20:40	20.3	20.3	20.3	75	13.7	3	7	270	0.00	30.044 
20:45	20.3	20.3	20.3	76	14.0	2	4	248	0.00	30.046 
20:50	20.2	20.2	20.2	77	14.2	2	5	248	0.00	30.050 
20:55	20.2	20.2	20.2	77	14.2	2	5	270	0.00	30.053 
21:00	20.2	20.2	20.2	78	14.5	2	4	292	0.00	30.053 
21:05	20.0	20.0	20.0	78	14.3	2	5	248	0.00	30.051 
21:10	19.9	19.9	19.9	79	14.5	1	3	270	0.00	30.054 
21:15	19.9	19.9	19.9	78	14.2	1	4	248	0.00	30.054 
21:20	19.9	19.9	19.9	78	14.2	2	4	248	0.00	30.055 
21:25	19.9	19.9	19.9	78	14.2	1	4	270	0.00	30.055 
21:30	19.9	19.9	19.9	78	14.2	1	3	270	0.00	30.056 
21:35	19.9	19.9	19.9	78	14.2	1	4	248	0.00	30.056 
21:40	19.7	19.7	19.7	78	14.0	1	3	270	0.00	30.057 
21:45	19.7	19.7	19.7	77	13.7	2	4	270	0.00	30.057 
21:50	19.7	19.7	19.7	77	13.7	2	4	270	0.00	30.057 
21:55	19.7	19.7	19.7	77	13.7	1	4	292	0.00	30.057 
22:00	19.5	19.5	19.5	77	13.5	1	4	270	0.00	30.057 
22:05	19.5	19.5	19.5	76	13.2	1	3	248	0.00	30.056 
22:10	19.5	19.5	19.5	76	13.2	2	5	270	0.00	30.056 
22:15	19.5	19.5	19.5	75	12.9	1	4	270	0.00	30.056 
22:20	19.5	19.5	19.5	76	13.2	0	3	270	0.00	30.057 
22:25	19.4	19.4	19.4	76	13.1	1	3	270	0.00	30.059 
22:30	19.4	19.4	19.4	76	13.1	1	3	270	0.00	30.060 
22:35	19.4	19.4	19.4	76	13.1	0	1	248	0.00	30.062 
22:40	19.2	19.2	19.2	76	12.9	0	1	248	0.00	30.063 
22:45	19.1	19.1	19.1	77	13.1	0	1	248	0.00	30.065 
22:50	19.1	19.1	19.1	77	13.1	0	0	---	0.00	30.066 
22:55	18.9	18.9	18.9	77	12.9	0	1	248	0.00	30.065 
23:00	18.9	18.9	18.9	77	12.9	0	1	248	0.00	30.062 
23:05	18.8	18.8	18.8	77	12.8	0	0	---	0.00	30.065 
23:10	18.4	18.4	18.4	77	12.4	0	1	248	0.00	30.069 
23:15	18.1	18.1	18.1	77	12.1	0	0	---	0.00	30.069 
23:20	17.8	17.8	17.8	77	11.8	0	0	---	0.00	30.069 
23:25	17.5	17.5	17.5	77	11.5	0	0	---	0.00	30.069 
23:30	17.3	17.3	17.3	77	11.3	0	1	248	0.00	30.067 
23:35	17.3	17.3	17.3	77	11.3	0	1	248	0.00	30.066 
23:40	17.3	17.3	17.3	77	11.3	0	1	248	0.00	30.066 
23:45	17.3	17.3	17.3	77	11.3	0	0	---	0.00	30.067 
23:50	17.5	17.5	17.5	78	11.8	0	1	248	0.00	30.069 
23:55	17.7	17.7	17.7	77	11.7	0	1	248	0.00	30.069 

CoCoRaHS
IN-AL-39
A2 Web Hosting
Creative Commons License
GoDaddy
Look for:

loaded 2017-10-17 18:30:37 • last modified 2010-11-18 10:43:29
Privacy PolicyDisclaimer
• wx.awcolley.com is powered by PmWiki v.2002016 •
• all content (unless otherwise noted) © 2017 A W Colley